createdAt,value
2018-02-07T00:01:07.378Z,37.57
2018-02-07T00:03:35.001Z,31.63
2018-02-07T00:06:02.543Z,32.78
2018-02-07T00:08:30.079Z,34.53
2018-02-07T00:10:57.962Z,39.37
2018-02-07T00:13:25.543Z,32.87
2018-02-07T00:15:53.180Z,32.37
2018-02-07T00:18:20.886Z,36.13
2018-02-07T00:20:48.953Z,35.23
2018-02-07T00:23:16.554Z,35.83
2018-02-07T00:25:44.289Z,35.37
2018-02-07T00:28:11.888Z,40.63
2018-02-07T00:30:39.545Z,43.80
2018-02-07T00:33:07.173Z,35.50
2018-02-07T00:35:34.682Z,36.10
2018-02-07T00:38:02.295Z,31.03
2018-02-07T00:40:29.834Z,36.00
2018-02-07T00:42:58.123Z,35.88
2018-02-07T00:45:25.738Z,39.40
2018-02-07T00:47:53.483Z,33.10
2018-02-07T00:50:21.108Z,35.30
2018-02-07T00:52:48.703Z,31.35
2018-02-07T00:55:16.267Z,34.80
2018-02-07T00:57:43.832Z,35.60
2018-02-07T01:00:11.399Z,32.00
2018-02-07T01:02:38.998Z,34.90
2018-02-07T01:05:06.543Z,32.55
2018-02-07T01:07:34.155Z,37.87
2018-02-07T01:10:01.705Z,37.17
2018-02-07T01:12:29.403Z,36.27
2018-02-07T01:14:56.928Z,35.03
2018-02-07T01:17:24.506Z,38.23
2018-02-07T01:19:52.043Z,33.90
2018-02-07T01:22:19.604Z,32.80
2018-02-07T01:24:47.147Z,37.30
2018-02-07T01:27:14.674Z,41.10
2018-02-07T01:29:42.270Z,36.90
2018-02-07T01:32:09.799Z,38.38
2018-02-07T01:34:37.413Z,37.50
2018-02-07T01:37:04.934Z,39.37
2018-02-07T01:39:32.548Z,38.10
2018-02-07T01:42:00.173Z,32.03
2018-02-07T01:44:27.763Z,33.43
2018-02-07T01:46:55.294Z,37.00
2018-02-07T01:49:22.831Z,40.47
2018-02-07T01:51:50.459Z,39.80
2018-02-07T01:54:18.068Z,40.00
2018-02-07T01:56:45.663Z,32.80
2018-02-07T01:59:13.283Z,37.90
2018-02-07T02:01:41.760Z,38.70
2018-02-07T02:04:09.331Z,44.07
2018-02-07T02:06:36.919Z,36.93
2018-02-07T02:09:04.567Z,44.83
2018-02-07T02:11:32.183Z,44.27
2018-02-07T02:13:59.708Z,36.00
2018-02-07T02:16:27.245Z,33.28
2018-02-07T02:18:54.763Z,34.03
2018-02-07T02:21:22.374Z,43.10
2018-02-07T02:23:50.019Z,45.23
2018-02-07T02:26:17.874Z,38.43
2018-02-07T02:28:45.514Z,39.70
2018-02-07T02:31:13.059Z,33.27
2018-02-07T02:33:40.599Z,35.50
2018-02-07T02:36:19.991Z,34.88
2018-02-07T02:38:47.558Z,38.27
2018-02-07T02:41:15.088Z,36.22
2018-02-07T02:43:42.664Z,37.53
2018-02-07T02:46:10.178Z,44.23
2018-02-07T02:48:37.799Z,34.20
2018-02-07T02:51:05.329Z,35.70
2018-02-07T02:53:32.883Z,32.43
2018-02-07T02:56:00.398Z,36.60
2018-02-07T02:58:27.933Z,35.10
2018-02-07T03:00:55.460Z,37.87
2018-02-07T03:03:23.033Z,42.70
2018-02-07T03:05:53.280Z,43.27
2018-02-07T03:08:20.800Z,40.97
2018-02-07T03:10:48.503Z,41.00
2018-02-07T03:13:16.037Z,40.30
2018-02-07T03:15:43.709Z,35.83
2018-02-07T03:18:11.209Z,36.07
2018-02-07T03:20:38.804Z,34.37
2018-02-07T03:23:06.388Z,40.35
2018-02-07T03:25:34.018Z,35.60
2018-02-07T03:28:01.592Z,33.37
2018-02-07T03:30:29.123Z,37.07
2018-02-07T03:32:56.660Z,34.60
2018-02-07T03:35:24.243Z,35.05
2018-02-07T03:37:51.800Z,36.00
2018-02-07T03:40:19.484Z,34.30
2018-02-07T03:42:47.015Z,38.40
2018-02-07T03:45:14.579Z,35.90
2018-02-07T03:47:42.084Z,32.70
2018-02-07T03:50:09.633Z,30.50
2018-02-07T03:52:37.204Z,35.10
2018-02-07T03:55:04.805Z,32.57
2018-02-07T03:57:32.325Z,33.30
2018-02-07T03:59:59.838Z,33.00
2018-02-07T04:02:27.483Z,33.25
2018-02-07T04:04:55.194Z,36.07
2018-02-07T04:07:22.748Z,34.33
2018-02-07T04:09:50.333Z,33.77
2018-02-07T04:12:17.891Z,33.80
2018-02-07T04:14:45.470Z,34.30
2018-02-07T04:17:13.070Z,36.07
2018-02-07T04:19:40.673Z,34.03
2018-02-07T04:22:08.255Z,33.30
2018-02-07T04:24:35.784Z,31.90
2018-02-07T04:27:03.324Z,36.80
2018-02-07T04:29:30.883Z,29.95
2018-02-07T04:31:58.420Z,32.00
2018-02-07T04:34:25.939Z,32.77
2018-02-07T04:36:53.481Z,31.83
2018-02-07T04:39:21.096Z,30.33
2018-02-07T04:41:48.624Z,31.47
2018-02-07T04:44:16.213Z,32.08
2018-02-07T04:46:43.799Z,30.20
2018-02-07T04:49:11.314Z,31.97
2018-02-07T04:51:38.896Z,34.10
2018-02-07T04:54:06.503Z,29.90
2018-02-07T04:56:34.034Z,29.97
2018-02-07T04:59:01.621Z,32.53
2018-02-07T05:01:29.155Z,31.20
2018-02-07T05:03:56.793Z,29.47
2018-02-07T05:06:24.384Z,28.27
2018-02-07T05:08:51.945Z,27.07
2018-02-07T05:11:19.485Z,33.70
2018-02-07T05:13:47.134Z,30.37
2018-02-07T05:16:14.645Z,34.10
2018-02-07T05:18:42.170Z,32.77
2018-02-07T05:21:09.753Z,31.20
2018-02-07T05:23:37.366Z,30.12
2018-02-07T05:26:04.906Z,26.50
2018-02-07T05:28:33.154Z,31.05
2018-02-07T05:31:00.814Z,32.00
2018-02-07T05:33:28.323Z,41.53
2018-02-07T05:35:55.855Z,37.50
2018-02-07T05:38:23.448Z,38.60
2018-02-07T05:40:51.036Z,29.80
2018-02-07T05:43:18.708Z,33.37
2018-02-07T05:45:46.602Z,39.57
2018-02-07T05:48:14.159Z,29.57
2018-02-07T05:50:42.683Z,33.17
2018-02-07T05:53:10.265Z,33.33
2018-02-07T05:55:37.793Z,35.63
2018-02-07T05:58:05.321Z,30.00
2018-02-07T06:00:32.858Z,31.90
2018-02-07T06:03:00.370Z,47.50
2018-02-07T06:05:27.884Z,42.33
2018-02-07T06:07:55.476Z,33.50
2018-02-07T06:10:23.103Z,28.80
2018-02-07T06:12:50.675Z,33.77
2018-02-07T06:15:18.274Z,37.53
2018-02-07T06:17:45.970Z,30.73
2018-02-07T06:20:13.843Z,35.37
2018-02-07T06:22:41.389Z,34.33
2018-02-07T06:25:08.995Z,35.10
2018-02-07T06:27:36.565Z,32.40
2018-02-07T06:30:04.094Z,30.03
2018-02-07T06:32:31.758Z,33.80
2018-02-07T06:34:59.394Z,31.70
2018-02-07T06:37:26.979Z,31.60
2018-02-07T06:39:54.631Z,33.70
2018-02-07T06:42:22.200Z,37.50
2018-02-07T06:44:49.986Z,33.60
2018-02-07T06:47:17.524Z,34.40
2018-02-07T06:49:45.049Z,32.73
2018-02-07T06:52:12.594Z,38.10
2018-02-07T06:54:40.128Z,31.90
2018-02-07T06:57:07.699Z,33.10
2018-02-07T06:59:35.263Z,51.53
2018-02-07T07:02:02.869Z,38.50
2018-02-07T07:04:30.424Z,32.13
2018-02-07T07:06:57.948Z,34.17
2018-02-07T07:09:25.633Z,39.93
2018-02-07T07:11:53.284Z,40.10
2018-02-07T07:14:20.834Z,38.87
2018-02-07T07:16:48.369Z,40.60
2018-02-07T07:19:15.884Z,37.97
2018-02-07T07:21:43.404Z,38.00
2018-02-07T07:24:11.029Z,45.67
2018-02-07T07:26:38.675Z,40.23
2018-02-07T07:29:06.264Z,36.43
2018-02-07T07:31:33.794Z,40.60
2018-02-07T07:34:01.634Z,44.53
2018-02-07T07:36:29.154Z,50.33
2018-02-07T07:38:56.885Z,45.93
2018-02-07T07:41:24.438Z,42.93
2018-02-07T07:43:51.975Z,48.73
2018-02-07T07:46:19.588Z,41.00
2018-02-07T07:48:47.169Z,37.23
2018-02-07T07:51:14.724Z,40.03
2018-02-07T07:53:42.256Z,37.53
2018-02-07T07:56:09.778Z,39.70
2018-02-07T07:58:37.298Z,38.90
2018-02-07T08:01:04.825Z,39.37
2018-02-07T08:03:32.344Z,36.60
2018-02-07T08:05:59.966Z,62.53
2018-02-07T08:08:27.495Z,40.63
2018-02-07T08:10:55.040Z,36.60
2018-02-07T08:13:22.703Z,34.90
2018-02-07T08:15:50.215Z,41.43
2018-02-07T08:18:17.827Z,47.20
2018-02-07T08:20:45.374Z,41.87
2018-02-07T08:23:12.963Z,34.60
2018-02-07T08:25:40.503Z,39.07
2018-02-07T08:28:08.091Z,34.93
2018-02-07T08:30:35.739Z,38.60
2018-02-07T08:33:03.288Z,37.70
2018-02-07T08:35:30.877Z,40.20
2018-02-07T08:37:58.444Z,36.77
2018-02-07T08:40:26.042Z,36.60
2018-02-07T08:42:53.655Z,33.87
2018-02-07T08:45:21.398Z,33.47
2018-02-07T08:47:49.045Z,39.20
2018-02-07T08:50:16.630Z,34.63
2018-02-07T08:52:44.144Z,36.70
2018-02-07T08:55:11.664Z,36.73
2018-02-07T08:57:39.328Z,33.67
2018-02-07T09:00:06.914Z,36.92
2018-02-07T09:02:34.431Z,37.13
2018-02-07T09:05:01.957Z,40.50
2018-02-07T09:07:29.494Z,117.63
2018-02-07T09:09:57.025Z,43.17
2018-02-07T09:12:24.580Z,49.47
2018-02-07T09:14:52.109Z,46.30
2018-02-07T09:17:19.621Z,41.30
2018-02-07T09:19:47.164Z,38.47
2018-02-07T09:22:14.684Z,39.90
2018-02-07T09:24:42.298Z,48.80
2018-02-07T09:27:09.865Z,52.97
2018-02-07T09:29:37.404Z,63.67
2018-02-07T09:32:05.063Z,44.10
2018-02-07T09:34:32.643Z,50.87
2018-02-07T09:37:00.277Z,67.22
2018-02-07T09:39:27.789Z,49.90
2018-02-07T09:41:55.329Z,50.00
2018-02-07T09:44:22.849Z,44.57
2018-02-07T09:46:50.378Z,56.53
2018-02-07T09:49:17.914Z,44.30
2018-02-07T09:51:45.448Z,44.10
2018-02-07T09:54:13.058Z,38.33
2018-02-07T09:56:40.649Z,39.50
2018-02-07T09:59:08.483Z,54.03
2018-02-07T10:01:36.035Z,32.63
2018-02-07T10:04:03.609Z,41.97
2018-02-07T10:06:31.200Z,46.07
2018-02-07T10:08:58.843Z,47.63
2018-02-07T10:11:26.517Z,41.37
2018-02-07T10:13:54.241Z,45.60
2018-02-07T10:16:21.758Z,36.20
2018-02-07T10:18:49.280Z,47.93
2018-02-07T10:21:16.820Z,41.30
2018-02-07T10:23:44.358Z,40.17
2018-02-07T10:26:11.899Z,42.70
2018-02-07T10:28:39.531Z,43.60
2018-02-07T10:31:07.134Z,38.30
2018-02-07T10:33:34.791Z,40.47
2018-02-07T10:36:02.313Z,38.67
2018-02-07T10:38:29.827Z,44.80
2018-02-07T10:40:57.359Z,52.67
2018-02-07T10:43:24.879Z,39.57
2018-02-07T10:45:52.521Z,40.00
2018-02-07T10:48:20.126Z,43.63
2018-02-07T10:50:47.659Z,39.07
2018-02-07T10:53:15.184Z,42.80
2018-02-07T10:55:42.779Z,41.17
2018-02-07T10:58:10.326Z,44.10
2018-02-07T11:00:37.874Z,44.03
2018-02-07T11:03:05.405Z,47.60
2018-02-07T11:05:32.924Z,46.70
2018-02-07T11:08:00.623Z,43.57
2018-02-07T11:10:28.173Z,42.70
2018-02-07T11:12:55.695Z,40.67
2018-02-07T11:15:23.268Z,41.77
2018-02-07T11:17:50.886Z,45.60
2018-02-07T11:20:18.414Z,40.17
2018-02-07T11:22:45.974Z,48.80
2018-02-07T11:25:13.506Z,40.30
2018-02-07T11:27:41.069Z,46.40
2018-02-07T11:30:08.618Z,48.40
2018-02-07T11:32:36.194Z,47.50
2018-02-07T11:35:03.844Z,47.77
2018-02-07T11:37:31.456Z,52.17
2018-02-07T11:39:58.998Z,39.07
2018-02-07T11:42:26.513Z,49.03
2018-02-07T11:44:54.344Z,46.67
2018-02-07T11:47:21.913Z,44.67
2018-02-07T11:49:49.499Z,45.00
2018-02-07T11:52:17.114Z,47.67
2018-02-07T11:54:44.761Z,47.10
2018-02-07T11:57:12.275Z,49.10
2018-02-07T11:59:39.811Z,59.77
2018-02-07T12:02:07.350Z,52.93
2018-02-07T12:04:34.895Z,48.20
2018-02-07T12:07:02.476Z,46.77
2018-02-07T12:09:30.038Z,50.40
2018-02-07T12:11:57.779Z,51.97
2018-02-07T12:14:25.343Z,46.50
2018-02-07T12:16:52.964Z,62.23
2018-02-07T12:19:20.489Z,53.67
2018-02-07T12:21:48.035Z,53.07
2018-02-07T12:24:15.600Z,64.30
2018-02-07T12:26:43.169Z,54.40
2018-02-07T12:29:10.711Z,50.33
2018-02-07T12:31:38.309Z,63.90
2018-02-07T12:34:05.841Z,68.20
2018-02-07T12:36:33.460Z,55.60
2018-02-07T12:39:01.076Z,62.83
2018-02-07T12:41:28.610Z,47.10
2018-02-07T12:43:56.160Z,49.40
2018-02-07T12:46:23.690Z,46.30
2018-02-07T12:48:51.325Z,54.97
2018-02-07T12:51:18.896Z,60.80
2018-02-07T12:53:46.441Z,50.25
2018-02-07T12:56:13.995Z,53.77
2018-02-07T12:58:41.598Z,77.07
2018-02-07T13:01:09.166Z,128.33
2018-02-07T13:03:36.830Z,92.10
2018-02-07T13:06:04.370Z,64.60
2018-02-07T13:08:32.866Z,111.73
2018-02-07T13:11:00.391Z,72.40
2018-02-07T13:13:27.941Z,56.33
2018-02-07T13:15:55.517Z,45.20
2018-02-07T13:18:23.036Z,40.40
2018-02-07T13:20:50.673Z,49.88
2018-02-07T13:23:18.189Z,42.80
2018-02-07T13:25:45.778Z,48.40
2018-02-07T13:28:13.296Z,48.70
2018-02-07T13:30:40.831Z,49.30
2018-02-07T13:33:08.755Z,48.65
2018-02-07T13:35:36.404Z,47.63
2018-02-07T13:38:03.934Z,44.87
2018-02-07T13:40:31.454Z,49.17
2018-02-07T13:42:59.181Z,54.92
2018-02-07T13:45:26.699Z,56.60
2018-02-07T13:47:54.236Z,54.53
2018-02-07T13:50:21.795Z,52.13
2018-02-07T13:52:49.319Z,56.07
2018-02-07T13:55:16.910Z,63.50
2018-02-07T13:57:44.560Z,50.00
2018-02-07T14:00:12.086Z,49.07
2018-02-07T14:02:39.629Z,50.87
2018-02-07T14:05:07.219Z,52.30
2018-02-07T14:07:34.753Z,53.40
2018-02-07T14:10:02.285Z,62.63
2018-02-07T14:12:29.799Z,60.43
2018-02-07T14:14:57.471Z,49.87
2018-02-07T14:17:25.069Z,58.35
2018-02-07T14:19:52.644Z,47.83
2018-02-07T14:22:20.219Z,47.20
2018-02-07T14:24:47.745Z,54.37
2018-02-07T14:27:15.293Z,49.30
2018-02-07T14:29:42.868Z,50.23
2018-02-07T14:32:10.399Z,50.67
2018-02-07T14:34:37.946Z,54.80
2018-02-07T14:37:05.704Z,52.40
2018-02-07T14:39:33.318Z,50.75
2018-02-07T14:42:01.774Z,56.00
2018-02-07T14:44:29.320Z,63.77
2018-02-07T14:46:56.930Z,48.47
2018-02-07T14:49:24.448Z,48.83
2018-02-07T14:51:52.106Z,45.87
2018-02-07T14:54:19.630Z,53.00
2018-02-07T14:56:47.221Z,48.53
2018-02-07T14:59:14.834Z,51.27
2018-02-07T15:01:42.363Z,59.30
2018-02-07T15:04:09.939Z,65.63
2018-02-07T15:06:37.476Z,57.72
2018-02-07T15:09:05.027Z,53.93
2018-02-07T15:11:32.544Z,46.30
2018-02-07T15:14:00.134Z,57.20
2018-02-07T15:16:27.675Z,52.40
2018-02-07T15:18:55.240Z,78.57
2018-02-07T15:21:22.928Z,53.67
2018-02-07T15:23:50.468Z,48.30
2018-02-07T15:26:18.099Z,48.40
2018-02-07T15:28:45.695Z,49.60
2018-02-07T15:31:13.215Z,49.47
2018-02-07T15:33:40.809Z,58.73
2018-02-07T15:36:08.340Z,56.53
2018-02-07T15:38:35.940Z,47.60
2018-02-07T15:41:03.558Z,53.13
2018-02-07T15:43:31.118Z,48.20
2018-02-07T15:45:58.810Z,54.43
2018-02-07T15:48:26.470Z,44.17
2018-02-07T15:50:53.995Z,41.57
2018-02-07T15:53:21.596Z,59.37
2018-02-07T15:55:49.196Z,54.27
2018-02-07T15:58:16.795Z,44.33
2018-02-07T16:00:44.410Z,52.67
2018-02-07T16:03:11.926Z,49.17
2018-02-07T16:05:39.618Z,43.70
2018-02-07T16:08:07.214Z,48.13
2018-02-07T16:10:34.819Z,45.47
2018-02-07T16:13:02.385Z,46.28
2018-02-07T16:15:29.964Z,48.70
2018-02-07T16:17:57.591Z,46.13
2018-02-07T16:20:25.160Z,47.17
2018-02-07T16:22:52.745Z,45.40
2018-02-07T16:25:20.305Z,38.77
2018-02-07T16:27:47.835Z,51.37
2018-02-07T16:30:15.950Z,43.10
2018-02-07T16:32:43.575Z,44.83
2018-02-07T16:35:11.169Z,40.47
2018-02-07T16:37:38.710Z,39.88
2018-02-07T16:40:06.254Z,43.80
2018-02-07T16:42:33.974Z,36.83
2018-02-07T16:45:01.510Z,42.63
2018-02-07T16:47:29.025Z,39.60
2018-02-07T16:49:56.555Z,54.73
2018-02-07T16:52:24.079Z,46.13
2018-02-07T16:54:51.619Z,44.60
2018-02-07T16:57:19.191Z,39.50
2018-02-07T16:59:46.723Z,38.73
2018-02-07T17:02:14.249Z,37.22
2018-02-07T17:04:41.788Z,38.70
2018-02-07T17:07:09.464Z,41.27
2018-02-07T17:09:37.131Z,42.27
2018-02-07T17:12:04.674Z,39.75
2018-02-07T17:14:32.250Z,41.53
2018-02-07T17:16:59.851Z,44.23
2018-02-07T17:19:27.396Z,39.67
2018-02-07T17:21:54.990Z,46.67
2018-02-07T17:24:22.504Z,39.60
2018-02-07T17:26:50.026Z,45.30
2018-02-07T17:29:17.555Z,37.87
2018-02-07T17:31:45.261Z,36.90
2018-02-07T17:34:12.794Z,45.10
2018-02-07T17:36:40.330Z,36.87
2018-02-07T17:39:07.979Z,37.90
2018-02-07T17:41:35.529Z,38.83
2018-02-07T17:44:03.051Z,41.23
2018-02-07T17:46:30.674Z,42.03
2018-02-07T17:48:58.227Z,39.10
2018-02-07T17:51:25.845Z,42.80
2018-02-07T17:53:53.361Z,39.30
2018-02-07T17:56:20.995Z,37.53
2018-02-07T17:58:48.546Z,38.10
2018-02-07T18:01:16.091Z,47.60
2018-02-07T18:03:43.683Z,49.33
2018-02-07T18:06:11.221Z,40.73
2018-02-07T18:08:38.826Z,41.43
2018-02-07T18:11:06.448Z,38.70
2018-02-07T18:13:34.002Z,40.10
2018-02-07T18:16:01.670Z,40.77
2018-02-07T18:18:29.240Z,34.87
2018-02-07T18:20:56.830Z,38.90
2018-02-07T18:23:24.378Z,45.77
2018-02-07T18:25:51.916Z,41.70
2018-02-07T18:28:19.470Z,36.93
2018-02-07T18:30:47.015Z,40.17
2018-02-07T18:33:14.637Z,105.23
2018-02-07T18:35:42.255Z,48.30
2018-02-07T18:38:09.870Z,44.33
2018-02-07T18:40:37.404Z,45.30
2018-02-07T18:43:04.949Z,46.05
2018-02-07T18:45:32.592Z,42.23
2018-02-07T18:48:00.181Z,41.80
2018-02-07T18:50:27.820Z,43.20
2018-02-07T18:52:55.536Z,42.30
2018-02-07T18:55:23.072Z,42.23
2018-02-07T18:57:50.650Z,41.80
2018-02-07T19:00:18.197Z,41.63
2018-02-07T19:02:45.826Z,45.77
2018-02-07T19:05:13.360Z,44.40
2018-02-07T19:07:40.972Z,47.10
2018-02-07T19:10:08.579Z,54.30
2018-02-07T19:12:36.106Z,47.08
2018-02-07T19:15:03.673Z,46.10
2018-02-07T19:17:31.299Z,46.07
2018-02-07T19:19:58.867Z,52.97
2018-02-07T19:22:26.426Z,44.50
2018-02-07T19:24:54.046Z,46.73
2018-02-07T19:27:21.615Z,50.87
2018-02-07T19:29:49.155Z,42.50
2018-02-07T19:32:16.805Z,37.30
2018-02-07T19:34:44.476Z,44.23
2018-02-07T19:37:12.027Z,41.43
2018-02-07T19:39:39.558Z,39.17
2018-02-07T19:42:07.186Z,45.90
2018-02-07T19:44:34.715Z,44.17
2018-02-07T19:47:02.374Z,42.57
2018-02-07T19:49:30.063Z,46.33
2018-02-07T19:51:57.587Z,44.33
2018-02-07T19:54:25.135Z,48.03
2018-02-07T19:56:52.733Z,46.93
2018-02-07T19:59:20.365Z,44.13
2018-02-07T20:01:47.904Z,42.40
2018-02-07T20:04:15.446Z,40.13
2018-02-07T20:06:43.074Z,39.23
2018-02-07T20:09:10.690Z,42.73
2018-02-07T20:11:38.226Z,41.63
2018-02-07T20:14:05.782Z,39.92
2018-02-07T20:16:33.344Z,41.57
2018-02-07T20:19:00.941Z,47.90
2018-02-07T20:21:28.504Z,45.47
2018-02-07T20:23:56.304Z,43.50
2018-02-07T20:26:23.884Z,45.37
2018-02-07T20:28:51.615Z,47.13
2018-02-07T20:31:19.481Z,42.30
2018-02-07T20:33:47.153Z,44.03
2018-02-07T20:36:14.881Z,43.10
2018-02-07T20:38:42.517Z,42.53
2018-02-07T20:41:10.104Z,43.40
2018-02-07T20:43:37.752Z,43.87
2018-02-07T20:46:05.677Z,50.50
2018-02-07T20:48:33.234Z,43.60
2018-02-07T20:51:00.844Z,46.23
2018-02-07T20:53:28.361Z,49.33
2018-02-07T20:55:55.905Z,43.47
2018-02-07T20:58:23.434Z,42.67
2018-02-07T21:00:50.972Z,47.30
2018-02-07T21:03:18.595Z,42.07
2018-02-07T21:05:46.221Z,46.33
2018-02-07T21:08:13.841Z,42.43
2018-02-07T21:10:41.447Z,42.10
2018-02-07T21:13:08.972Z,41.43
2018-02-07T21:15:36.906Z,47.20
2018-02-07T21:18:04.515Z,40.03
2018-02-07T21:20:32.059Z,45.80
2018-02-07T21:22:59.644Z,42.07
2018-02-07T21:25:27.343Z,43.60
2018-02-07T21:27:54.862Z,47.22
2018-02-07T21:30:22.582Z,41.23
2018-02-07T21:32:50.290Z,44.37
2018-02-07T21:35:17.887Z,43.03
2018-02-07T21:37:45.472Z,40.23
2018-02-07T21:40:13.071Z,46.43
2018-02-07T21:42:40.695Z,45.73
2018-02-07T21:45:08.364Z,41.37
2018-02-07T21:47:35.926Z,44.47
2018-02-07T21:50:03.501Z,42.73
2018-02-07T21:52:31.155Z,44.93
2018-02-07T21:54:58.834Z,46.00
2018-02-07T21:57:26.448Z,40.97
2018-02-07T21:59:54.034Z,49.10
2018-02-07T22:02:23.289Z,45.80
2018-02-07T22:04:50.800Z,41.50
2018-02-07T22:07:18.349Z,45.90
2018-02-07T22:09:45.899Z,50.33
2018-02-07T22:12:13.509Z,45.13
2018-02-07T22:14:41.260Z,45.50
2018-02-07T22:17:08.775Z,42.37
2018-02-07T22:19:36.319Z,47.92
2018-02-07T22:22:03.973Z,51.20
2018-02-07T22:24:31.558Z,47.87
2018-02-07T22:26:59.087Z,45.40
2018-02-07T22:29:26.696Z,42.50
2018-02-07T22:31:54.438Z,43.67
2018-02-07T22:34:22.005Z,41.10
2018-02-07T22:36:49.685Z,39.00
2018-02-07T22:39:17.221Z,38.00
2018-02-07T22:41:44.758Z,39.80
2018-02-07T22:44:12.295Z,50.20
2018-02-07T22:46:39.814Z,43.17
2018-02-07T22:49:07.390Z,38.77
2018-02-07T22:51:35.045Z,37.83
2018-02-07T22:54:02.623Z,38.53
2018-02-07T22:56:30.166Z,42.47
2018-02-07T22:59:00.869Z,44.80
2018-02-07T23:01:28.515Z,44.60
2018-02-07T23:03:56.290Z,41.40
2018-02-07T23:06:24.110Z,45.33
2018-02-07T23:12:02.246Z,46.73
2018-02-07T23:14:29.800Z,42.37
2018-02-07T23:16:57.330Z,43.50
2018-02-07T23:19:24.866Z,43.13
2018-02-07T23:21:52.411Z,40.60
2018-02-07T23:24:20.459Z,44.03
2018-02-07T23:26:48.054Z,39.93
2018-02-07T23:29:15.694Z,38.43
2018-02-07T23:31:43.360Z,38.80
2018-02-07T23:34:10.920Z,39.97
2018-02-07T23:36:38.553Z,41.10
2018-02-07T23:39:06.080Z,45.83
2018-02-07T23:41:33.590Z,42.85
2018-02-07T23:44:01.121Z,43.53
2018-02-07T23:46:28.731Z,42.62
2018-02-07T23:48:56.430Z,41.70
2018-02-07T23:51:24.192Z,43.13
2018-02-07T23:53:51.730Z,36.57
2018-02-07T23:56:19.275Z,40.30
2018-02-07T23:58:46.859Z,39.90
